createdAt,value
2023-03-21T00:28:59.675Z,9.92
2023-03-21T00:31:28.302Z,9.86
2023-03-21T00:33:59.267Z,9.83
2023-03-21T00:36:27.492Z,9.81
2023-03-21T00:38:55.992Z,9.80
2023-03-21T02:47:05.926Z,9.31
2023-03-21T02:49:57.984Z,9.29
2023-03-21T02:52:38.610Z,9.29
2023-03-21T02:55:15.032Z,9.24
2023-03-21T02:58:06.898Z,9.23
2023-03-21T03:00:43.667Z,9.19
2023-03-21T03:03:20.773Z,9.19
2023-03-21T03:05:58.703Z,9.19
2023-03-21T03:08:59.808Z,9.18
2023-03-21T03:12:55.355Z,9.15
2023-03-21T03:15:29.321Z,9.13
2023-03-21T03:18:24.065Z,9.13
2023-03-21T03:21:08.876Z,9.15
2023-03-21T03:23:46.003Z,9.13
2023-03-21T03:26:26.619Z,9.11
2023-03-21T03:28:59.048Z,9.08
2023-03-21T03:31:42.809Z,9.05
2023-03-21T03:34:16.102Z,9.04
2023-03-21T03:36:50.934Z,9.04
2023-03-21T03:39:18.341Z,9.03
2023-03-21T03:42:15.408Z,9.03
2023-03-21T03:44:48.386Z,9.03
2023-03-21T03:47:32.229Z,9.01
2023-03-21T03:50:09.317Z,9.01
2023-03-21T03:52:55.685Z,8.99
2023-03-21T03:55:33.743Z,9.01
2023-03-21T03:58:13.161Z,9.00
2023-03-21T04:09:20.934Z,8.97
2023-03-21T04:16:13.402Z,8.99
2023-03-21T04:18:42.658Z,8.99
2023-03-21T04:21:12.441Z,8.98
2023-03-21T04:23:40.652Z,9.00
2023-03-21T04:26:08.679Z,9.00
2023-03-21T04:28:39.279Z,8.94
2023-03-21T04:31:26.907Z,8.94
2023-03-21T04:34:03.711Z,8.97
2023-03-21T04:36:38.036Z,8.98
2023-03-21T04:39:11.703Z,8.97
2023-03-21T04:41:43.618Z,8.98
2023-03-21T04:44:11.899Z,8.97
2023-03-21T04:46:41.875Z,8.96
2023-03-21T04:49:10.089Z,8.95
2023-03-21T04:51:39.259Z,8.94
2023-03-21T04:56:37.453Z,8.92
2023-03-21T04:59:12.212Z,8.92
2023-03-21T05:01:40.644Z,8.92
2023-03-21T05:04:07.566Z,8.91
2023-03-21T05:06:38.364Z,8.92
2023-03-21T05:09:06.535Z,8.93
2023-03-21T05:11:37.408Z,8.89
2023-03-21T05:14:05.666Z,8.88
2023-03-21T05:16:34.161Z,8.85
2023-03-21T05:19:04.657Z,8.84
2023-03-21T05:21:40.612Z,8.84
2023-03-21T05:24:16.474Z,8.84
2023-03-21T05:26:49.655Z,8.82
2023-03-21T05:29:18.930Z,8.83
2023-03-21T05:31:51.326Z,8.82
2023-03-21T05:34:19.762Z,8.82
2023-03-21T05:36:46.941Z,8.82
2023-03-21T05:39:14.296Z,8.80
2023-03-21T05:41:44.765Z,8.79
2023-03-21T05:44:12.049Z,8.76
2023-03-21T05:46:39.384Z,8.71
2023-03-21T05:49:06.357Z,8.66
2023-03-21T05:51:33.697Z,8.63
2023-03-21T05:54:00.351Z,8.61
2023-03-21T05:56:27.403Z,8.63
2023-03-21T05:58:57.840Z,8.65
2023-03-21T06:01:25.344Z,8.66
2023-03-21T06:03:57.353Z,8.66
2023-03-21T06:06:32.683Z,8.65
2023-03-21T06:09:09.962Z,8.65
2023-03-21T06:30:57.328Z,8.58
2023-03-21T06:37:00.455Z,8.57
2023-03-21T06:39:32.459Z,8.56
2023-03-21T06:41:59.683Z,8.58
2023-03-21T06:44:29.945Z,8.61
2023-03-21T06:47:01.816Z,8.61
2023-03-21T07:38:45.785Z,8.83
2023-03-21T07:44:33.044Z,8.92
2023-03-21T07:47:06.465Z,8.96
2023-03-21T07:49:42.558Z,8.95
2023-03-21T07:52:12.500Z,8.95
2023-03-21T07:55:13.696Z,8.99
2023-03-21T07:57:53.029Z,8.99
2023-03-21T08:38:54.026Z,9.05
2023-03-21T08:41:27.751Z,9.09
2023-03-21T09:06:42.800Z,9.32
2023-03-21T09:09:12.692Z,9.36
2023-03-21T09:11:40.451Z,9.36
2023-03-21T09:14:11.996Z,9.38
2023-03-21T09:16:46.158Z,9.40
2023-03-21T09:19:13.576Z,9.41
2023-03-21T09:21:54.431Z,9.67
2023-03-21T09:41:11.740Z,9.81
2023-03-21T09:43:47.610Z,9.77
2023-03-21T09:46:33.282Z,9.71
2023-03-21T09:49:09.272Z,9.71
2023-03-21T09:51:53.381Z,9.73
2023-03-21T09:58:14.928Z,9.72
2023-03-21T10:01:29.390Z,9.72
2023-03-21T10:04:34.584Z,9.74
2023-03-21T10:07:30.266Z,9.69
2023-03-21T10:10:00.251Z,9.70
2023-03-21T10:12:30.967Z,9.72
2023-03-21T10:15:01.586Z,9.73
2023-03-21T10:24:29.060Z,9.59
2023-03-21T10:27:01.789Z,9.61
2023-03-21T10:29:41.812Z,9.49
2023-03-21T10:32:16.271Z,9.47
2023-03-21T10:37:28.382Z,9.39
2023-03-21T10:39:55.930Z,9.39
2023-03-21T10:43:11.119Z,9.39
2023-03-21T11:34:53.184Z,10.12
2023-03-21T11:45:28.081Z,10.13
2023-03-21T11:49:04.902Z,10.09
2023-03-21T12:21:25.557Z,10.77
2023-03-21T12:24:15.409Z,10.84
2023-03-21T12:27:01.514Z,11.04
2023-03-21T12:29:50.119Z,11.06
2023-03-21T13:37:16.981Z,10.41
2023-03-21T13:39:47.883Z,10.40
2023-03-21T13:42:32.484Z,10.35
2023-03-21T13:45:02.563Z,10.30
2023-03-21T13:48:05.148Z,10.27
2023-03-21T13:51:04.240Z,10.21
2023-03-21T13:53:32.623Z,10.17
2023-03-21T13:56:17.005Z,10.13
2023-03-21T13:58:45.164Z,10.11
2023-03-21T14:01:36.093Z,10.10
2023-03-21T14:04:07.410Z,10.10
2023-03-21T14:06:40.228Z,10.09
2023-03-21T14:09:14.151Z,10.07
2023-03-21T14:11:48.738Z,10.06
2023-03-21T14:14:19.460Z,10.05
2023-03-21T14:17:29.816Z,10.07
2023-03-21T14:20:31.216Z,10.08
2023-03-21T14:22:59.546Z,10.09
2023-03-21T14:25:46.671Z,10.07
2023-03-21T14:28:17.291Z,10.07
2023-03-21T14:31:00.323Z,10.06
2023-03-21T14:37:50.045Z,10.12
2023-03-21T14:44:16.317Z,10.15
2023-03-21T15:12:54.976Z,10.36
2023-03-21T15:15:27.344Z,10.40
2023-03-21T15:18:10.172Z,10.43
2023-03-21T15:20:39.459Z,10.46
2023-03-21T15:23:47.604Z,10.48
2023-03-21T15:26:48.049Z,10.57
2023-03-21T15:29:37.886Z,10.59
2023-03-21T15:32:23.110Z,10.59
2023-03-21T15:34:57.451Z,10.58
2023-03-21T15:37:30.275Z,10.84
2023-03-21T15:40:18.301Z,10.89
2023-03-21T15:52:52.233Z,10.69
2023-03-21T15:55:28.606Z,10.64
2023-03-21T15:58:05.865Z,10.60
2023-03-21T16:00:45.670Z,10.54
2023-03-21T16:07:20.570Z,10.48
2023-03-21T16:09:49.248Z,10.53
2023-03-21T16:22:37.734Z,10.57
2023-03-21T16:25:11.548Z,10.75
2023-03-21T16:27:42.403Z,11.01
2023-03-21T16:30:13.852Z,10.98
2023-03-21T16:32:44.660Z,10.92
2023-03-21T16:35:16.641Z,10.86
2023-03-21T16:37:52.563Z,10.79
2023-03-21T16:40:34.792Z,10.73
2023-03-21T16:43:03.904Z,10.68
2023-03-21T16:45:34.612Z,10.61
2023-03-21T16:48:05.285Z,10.57
2023-03-21T16:50:42.507Z,10.51
2023-03-21T16:53:10.948Z,10.46
2023-03-21T16:55:39.395Z,10.41
2023-03-21T16:58:14.361Z,10.37
2023-03-21T17:00:45.402Z,10.33
2023-03-21T17:03:19.281Z,10.29
2023-03-21T17:05:50.462Z,10.25
2023-03-21T17:08:22.512Z,10.20
2023-03-21T17:10:55.593Z,10.15
2023-03-21T17:13:26.464Z,10.11
2023-03-21T17:15:54.614Z,10.06
2023-03-21T17:18:22.983Z,10.01
2023-03-21T17:20:51.511Z,9.96
2023-03-21T17:23:19.720Z,9.92
2023-03-21T17:25:51.184Z,9.87
2023-03-21T17:28:22.392Z,9.82
2023-03-21T17:30:53.400Z,9.78
2023-03-21T17:33:27.838Z,9.75
2023-03-21T17:35:56.861Z,9.72
2023-03-21T17:38:25.313Z,9.67
2023-03-21T17:40:54.062Z,9.64
2023-03-21T17:43:23.423Z,9.60
2023-03-21T17:45:54.085Z,9.54
2023-03-21T17:48:26.115Z,9.54
2023-03-21T17:51:01.910Z,9.51
2023-03-21T17:53:30.239Z,9.48
2023-03-21T17:55:58.648Z,9.45
2023-03-21T17:58:28.483Z,9.41
2023-03-21T18:01:10.239Z,9.38
2023-03-21T18:03:38.563Z,9.36
2023-03-21T18:06:16.480Z,9.32
2023-03-21T18:08:46.141Z,9.29
2023-03-21T18:11:15.845Z,9.27
2023-03-21T18:13:49.121Z,9.24
2023-03-21T18:16:20.198Z,9.22
2023-03-21T18:18:53.956Z,9.19
2023-03-21T18:21:23.018Z,9.16
2023-03-21T18:23:55.889Z,9.13
2023-03-21T18:26:24.585Z,9.10
2023-03-21T18:29:43.952Z,9.07
2023-03-21T18:31:43.833Z,9.05
2023-03-21T18:34:15.242Z,9.01
2023-03-21T18:36:46.064Z,8.98
2023-03-21T18:39:19.188Z,8.94
2023-03-21T18:41:55.776Z,8.91
2023-03-21T18:44:31.142Z,8.88
2023-03-21T18:46:59.624Z,8.85
2023-03-21T18:50:10.390Z,8.82
2023-03-21T18:52:19.635Z,8.79
2023-03-21T18:54:48.042Z,8.77
2023-03-21T18:57:35.839Z,8.74
2023-03-21T19:00:12.800Z,8.71
2023-03-21T19:02:47.049Z,8.69
2023-03-21T19:05:18.009Z,8.66
2023-03-21T19:07:48.058Z,8.64
2023-03-21T19:10:23.491Z,8.61
2023-03-21T19:12:55.664Z,8.58
2023-03-21T19:15:26.776Z,8.56
2023-03-21T19:20:46.083Z,8.46
2023-03-21T19:23:14.687Z,8.38
2023-03-21T19:25:43.974Z,8.32
2023-03-21T19:28:12.656Z,8.28
2023-03-21T19:30:49.631Z,8.25
2023-03-21T19:33:24.187Z,8.23
2023-03-21T19:36:10.815Z,8.22
2023-03-21T19:38:46.310Z,8.18
2023-03-21T19:41:14.298Z,8.15
2023-03-21T19:43:53.136Z,8.14
2023-03-21T19:46:54.956Z,8.08
2023-03-21T19:49:45.660Z,7.92
2023-03-21T19:52:14.875Z,7.80
2023-03-21T19:54:45.681Z,7.69
2023-03-21T19:57:15.354Z,7.63
2023-03-21T19:59:43.956Z,7.56
2023-03-21T20:02:34.368Z,7.51
2023-03-21T20:05:04.996Z,7.44
2023-03-21T20:07:33.512Z,7.39
2023-03-21T20:10:04.726Z,7.38
2023-03-21T20:12:33.239Z,7.39
2023-03-21T20:15:16.382Z,7.35
2023-03-21T20:17:46.487Z,7.32
2023-03-21T20:20:18.323Z,7.27
2023-03-21T20:23:07.866Z,7.20
2023-03-21T20:25:45.012Z,7.17
2023-03-21T20:28:17.259Z,7.14
2023-03-21T20:30:58.506Z,7.09
2023-03-21T20:33:34.766Z,7.10
2023-03-21T20:36:38.187Z,7.08
2023-03-21T20:38:53.793Z,7.07
2023-03-21T20:41:22.137Z,7.03
2023-03-21T20:46:38.771Z,6.87
2023-03-21T20:49:07.044Z,6.83
2023-03-21T20:54:28.805Z,6.83
2023-03-21T20:56:59.916Z,6.85
2023-03-21T20:59:29.217Z,6.82
2023-03-21T21:01:59.055Z,6.81
2023-03-21T21:04:55.746Z,6.78
2023-03-21T21:07:31.315Z,6.77
2023-03-21T21:10:00.144Z,6.72
2023-03-21T21:12:29.064Z,6.66
2023-03-21T21:14:57.754Z,6.59
2023-03-21T21:18:01.644Z,6.54
2023-03-21T21:20:22.847Z,6.50
2023-03-21T21:23:00.232Z,6.49
2023-03-21T21:25:31.964Z,6.51
2023-03-21T21:28:01.884Z,6.52
2023-03-21T21:30:33.649Z,6.49
2023-03-21T21:33:05.677Z,6.42
2023-03-21T21:35:37.537Z,6.35
2023-03-21T21:38:08.913Z,6.31
2023-03-21T21:40:37.509Z,6.30
2023-03-21T21:43:08.883Z,6.31
2023-03-21T21:45:37.274Z,6.27
2023-03-21T21:48:06.076Z,6.24
2023-03-21T21:50:35.565Z,6.18
2023-03-21T21:53:06.007Z,6.13
2023-03-21T21:55:39.472Z,6.08
2023-03-21T21:58:13.482Z,6.05
2023-03-21T22:00:42.904Z,6.02
2023-03-21T22:03:12.108Z,5.98
2023-03-21T22:05:44.486Z,5.92
2023-03-21T22:08:21.056Z,5.88
2023-03-21T22:10:48.974Z,5.85
2023-03-21T22:13:21.665Z,5.80
2023-03-21T22:15:49.681Z,5.76
2023-03-21T22:18:20.435Z,5.72
2023-03-21T22:20:51.290Z,5.66
2023-03-21T22:23:21.482Z,5.68
2023-03-21T22:25:51.491Z,5.72
2023-03-21T22:28:22.135Z,5.77
2023-03-21T22:30:56.116Z,5.81
2023-03-21T22:33:27.463Z,5.82
2023-03-21T22:35:57.628Z,5.82
2023-03-21T22:38:28.105Z,5.81
2023-03-21T22:41:00.752Z,5.75
2023-03-21T22:43:34.412Z,5.71
2023-03-21T22:46:05.715Z,5.67
2023-03-21T22:48:34.874Z,5.58
2023-03-21T22:51:09.124Z,5.52
2023-03-21T22:53:39.641Z,5.52
2023-03-21T22:56:12.831Z,5.45
2023-03-21T22:58:40.864Z,5.41
2023-03-21T23:01:08.870Z,5.38
2023-03-21T23:03:37.129Z,5.40
2023-03-21T23:06:07.903Z,5.44
2023-03-21T23:08:35.824Z,5.35
2023-03-21T23:11:25.357Z,5.39
2023-03-21T23:14:07.517Z,5.37
2023-03-21T23:16:38.473Z,5.35
2023-03-21T23:19:10.390Z,5.34
2023-03-21T23:21:39.345Z,5.31
2023-03-21T23:24:12.382Z,5.29
2023-03-21T23:26:41.313Z,5.29
2023-03-21T23:29:16.182Z,5.29
2023-03-21T23:31:45.821Z,5.27
2023-03-21T23:34:14.385Z,5.26
2023-03-21T23:36:42.577Z,5.30
2023-03-21T23:39:13.152Z,5.31
2023-03-21T23:41:43.249Z,5.24
2023-03-21T23:44:11.643Z,5.22
2023-03-21T23:46:40.078Z,5.24
2023-03-21T23:49:09.409Z,5.26
2023-03-21T23:51:38.458Z,5.27
2023-03-21T23:54:06.842Z,5.24
2023-03-21T23:56:35.388Z,5.20
2023-03-21T23:59:13.361Z,5.17
